Time;durP1;ratioP1;P1;durP2;ratioP2;P2;SDS_P1;SDS_P2;PMS_P1;PMS_P2;Temp;Humidity;BMP_temperature;BMP_pressure;BME280_temperature;BME280_humidity;BME280_pressure;Samples;Min_cycle;Max_cycle;Signal;HPM_P1;HPM_P2
2022/04/27 00:00:13;;;;;;;0.93;0.77;;;8.10;99.90;;;;;;5083949;28;20204;-55
2022/04/27 00:02:58;;;;;;;1.03;0.93;;;8.10;99.90;;;;;;5085689;28;20203;-50
2022/04/27 00:05:42;;;;;;;1.40;1.30;;;8.10;99.90;;;;;;5083958;28;20252;-59
2022/04/27 00:08:27;;;;;;;1.20;1.10;;;8.10;99.90;;;;;;5084887;28;20229;-58
2022/04/27 00:11:11;;;;;;;2.27;1.30;;;8.20;99.90;;;;;;5085398;28;20504;-54
2022/04/27 00:13:56;;;;;;;1.40;1.30;;;8.10;99.90;;;;;;5084195;28;20235;-53
2022/04/27 00:16:40;;;;;;;2.43;1.47;;;8.10;99.90;;;;;;5085113;28;20351;-57
2022/04/27 00:19:26;;;;;;;1.10;1.00;;;8.10;99.90;;;;;;5084832;28;20322;-59
2022/04/27 00:22:14;;;;;;;1.07;0.97;;;8.10;99.90;;;;;;5083575;28;20303;-60
2022/04/27 00:25:00;;;;;;;0.60;0.60;;;8.20;99.90;;;;;;5085685;28;20224;-59
2022/04/27 00:27:46;;;;;;;1.20;1.10;;;8.20;99.90;;;;;;5083884;28;20224;-55
2022/04/27 00:30:31;;;;;;;1.20;1.20;;;8.10;99.90;;;;;;5083652;28;20324;-60
2022/04/27 00:33:15;;;;;;;1.60;1.47;;;8.20;99.90;;;;;;5085515;28;20205;-54
2022/04/27 00:35:59;;;;;;;2.73;1.30;;;8.20;99.90;;;;;;5082923;28;20241;-46
2022/04/27 00:38:43;;;;;;;1.53;1.43;;;8.10;99.90;;;;;;5084126;28;20216;-47
2022/04/27 00:41:27;;;;;;;0.63;0.63;;;8.10;99.90;;;;;;5084849;28;20197;-54
2022/04/27 00:44:11;;;;;;;1.17;1.07;;;8.00;99.90;;;;;;5082886;28;20204;-50
2022/04/27 00:46:56;;;;;;;1.33;1.00;;;8.00;99.90;;;;;;5084381;28;20208;-55
2022/04/27 00:49:43;;;;;;;1.23;1.13;;;8.00;99.90;;;;;;5084303;28;20208;-58
2022/04/27 00:52:27;;;;;;;1.63;1.53;;;8.00;99.90;;;;;;5084182;28;20192;-50
2022/04/27 00:55:12;;;;;;;1.20;1.10;;;8.00;99.90;;;;;;5084903;28;20331;-52
2022/04/27 00:57:59;;;;;;;1.57;1.47;;;8.00;99.90;;;;;;5084536;28;20207;-49
2022/04/27 01:00:43;;;;;;;1.43;0.80;;;7.90;99.90;;;;;;5083047;28;20196;-46
2022/04/27 01:03:28;;;;;;;1.43;1.33;;;7.90;99.90;;;;;;5084830;28;20205;-49
2022/04/27 01:06:13;;;;;;;2.13;1.23;;;7.90;99.90;;;;;;5082881;28;20302;-49
2022/04/27 01:08:58;;;;;;;1.50;1.03;;;7.90;99.90;;;;;;5084014;28;20236;-45
2022/04/27 01:11:42;;;;;;;1.33;1.20;;;7.90;99.90;;;;;;5084232;28;20622;-52
2022/04/27 01:14:27;;;;;;;1.43;1.27;;;7.90;99.90;;;;;;5082352;28;20273;-45
2022/04/27 01:17:12;;;;;;;1.67;1.57;;;7.90;99.90;;;;;;5083971;28;20200;-45
2022/04/27 01:19:56;;;;;;;1.23;1.13;;;7.90;99.90;;;;;;5083488;28;20200;-45
2022/04/27 01:22:41;;;;;;;2.10;1.47;;;7.90;99.90;;;;;;5082778;28;20288;-46
2022/04/27 01:25:25;;;;;;;1.20;1.10;;;7.80;99.90;;;;;;5084665;28;20263;-46
2022/04/27 01:28:09;;;;;;;1.93;1.60;;;7.90;99.90;;;;;;5082202;28;20246;-50
2022/04/27 01:31:00;;;;;;;1.67;1.30;;;7.90;99.90;;;;;;5083147;28;20239;-53
2022/04/27 01:33:46;;;;;;;1.67;1.50;;;7.80;99.90;;;;;;5084633;28;20236;-55
2022/04/27 01:36:31;;;;;;;1.20;1.10;;;7.90;99.90;;;;;;5082416;28;20193;-59
2022/04/27 01:39:15;;;;;;;1.77;1.30;;;7.80;99.90;;;;;;5083772;28;20271;-59
2022/04/27 01:41:59;;;;;;;2.23;1.20;;;7.80;99.90;;;;;;5083515;28;20193;-58
2022/04/27 01:44:43;;;;;;;3.00;1.10;;;7.80;99.90;;;;;;5082161;28;20197;-55
2022/04/27 01:47:28;;;;;;;1.80;1.70;;;7.90;99.90;;;;;;5083626;28;20766;-53
2022/04/27 01:50:12;;;;;;;1.50;1.40;;;7.90;99.90;;;;;;5083287;28;20193;-53
2022/04/27 01:55:59;;;;;;;2.00;1.57;;;7.80;99.90;;;;;;5084640;28;20285;-54
2022/04/27 01:58:45;;;;;;;2.77;1.50;;;7.80;99.90;;;;;;5082471;28;20212;-46
2022/04/27 02:01:29;;;;;;;1.43;1.27;;;7.80;99.90;;;;;;5082878;28;20188;-50
2022/04/27 02:04:14;;;;;;;1.23;1.10;;;7.80;99.90;;;;;;5084009;28;20215;-53
2022/04/27 02:06:58;;;;;;;1.53;1.00;;;7.70;99.90;;;;;;5083154;28;20615;-54
2022/04/27 02:09:43;;;;;;;1.60;1.30;;;7.80;99.90;;;;;;5082850;28;20228;-55
2022/04/27 02:12:27;;;;;;;2.37;1.17;;;7.70;99.90;;;;;;5084165;28;20196;-54
2022/04/27 02:15:11;;;;;;;1.93;1.50;;;7.80;99.90;;;;;;5081634;28;20244;-46
2022/04/27 02:17:56;;;;;;;1.53;1.43;;;7.80;99.90;;;;;;5082322;28;20188;-51
2022/04/27 02:20:40;;;;;;;1.80;1.50;;;7.90;99.90;;;;;;5083662;28;20193;-49
2022/04/27 02:23:24;;;;;;;1.87;1.40;;;7.90;99.90;;;;;;5082344;28;20271;-56
2022/04/27 02:26:08;;;;;;;1.63;1.40;;;7.90;99.90;;;;;;5083705;28;20184;-49
2022/04/27 02:28:53;;;;;;;1.80;1.30;;;7.90;99.90;;;;;;5082036;28;20192;-47
2022/04/27 02:31:37;;;;;;;1.50;1.40;;;7.80;99.90;;;;;;5081775;28;20223;-49
2022/04/27 02:34:22;;;;;;;1.63;1.40;;;7.90;99.90;;;;;;5084065;28;20298;-58
2022/04/27 02:37:06;;;;;;;2.73;1.47;;;7.80;99.90;;;;;;5081462;28;20250;-52
2022/04/27 02:39:50;;;;;;;1.20;1.10;;;7.80;99.90;;;;;;5082502;28;20250;-52
2022/04/27 02:42:35;;;;;;;3.53;1.50;;;7.80;99.90;;;;;;5083236;28;20209;-58
2022/04/27 02:45:20;;;;;;;1.17;1.07;;;7.70;99.90;;;;;;5084085;28;20196;-53
2022/04/27 02:48:04;;;;;;;2.40;1.80;;;7.70;99.90;;;;;;5086873;28;20200;-53
2022/04/27 02:53:51;;;;;;;1.43;1.33;;;7.60;99.90;;;;;;5086426;28;20216;-52
2022/04/27 02:56:36;;;;;;;1.60;1.50;;;7.70;99.90;;;;;;5086551;28;20228;-52
2022/04/27 02:59:21;;;;;;;2.23;1.63;;;7.70;99.90;;;;;;5085891;28;20184;-56
2022/04/27 03:02:06;;;;;;;2.17;1.90;;;7.70;99.90;;;;;;5085571;28;20318;-63
2022/04/27 03:04:50;;;;;;;3.43;2.07;;;7.70;99.90;;;;;;5086829;28;20224;-55
2022/04/27 03:07:35;;;;;;;2.30;1.57;;;7.60;99.90;;;;;;5085425;28;20267;-49
2022/04/27 03:10:20;;;;;;;6.00;3.97;;;7.60;99.90;;;;;;5086101;28;20650;-49
2022/04/27 03:13:04;;;;;;;5.73;3.53;;;7.60;99.90;;;;;;5087229;28;20243;-55
2022/04/27 03:15:49;;;;;;;3.77;1.83;;;7.60;99.90;;;;;;5084723;28;20224;-57
2022/04/27 03:18:32;;;;;;;3.07;2.03;;;7.70;99.90;;;;;;5085793;28;20276;-52
2022/04/27 03:21:17;;;;;;;1.80;1.30;;;7.80;99.90;;;;;;5086670;28;20327;-61
2022/04/27 03:24:02;;;;;;;2.77;1.70;;;7.80;99.90;;;;;;5084232;28;20205;-54
2022/04/27 03:26:47;;;;;;;2.37;1.57;;;7.80;99.90;;;;;;5086442;28;20221;-55
2022/04/27 03:29:31;;;;;;;2.00;1.83;;;7.70;99.90;;;;;;5084866;28;20208;-61
2022/04/27 03:32:15;;;;;;;5.37;2.27;;;7.60;99.90;;;;;;5084493;28;20236;-51
2022/04/27 03:35:00;;;;;;;3.83;1.80;;;7.70;99.90;;;;;;5085800;28;20352;-44
2022/04/27 03:37:44;;;;;;;3.40;2.03;;;7.70;99.90;;;;;;5084833;28;20250;-54
2022/04/27 03:40:30;;;;;;;11.60;5.67;;;7.80;99.90;;;;;;5085121;28;20279;-52
2022/04/27 03:43:17;;;;;;;3.43;2.20;;;7.70;99.90;;;;;;5086349;28;20200;-46
2022/04/27 03:46:02;;;;;;;3.77;1.90;;;7.70;99.90;;;;;;5083981;28;20246;-58
2022/04/27 03:48:47;;;;;;;3.27;1.90;;;7.70;99.90;;;;;;5085238;28;20235;-54
2022/04/27 03:51:31;;;;;;;3.80;1.80;;;7.80;99.90;;;;;;5085276;28;20224;-54
2022/04/27 03:54:15;;;;;;;2.43;1.77;;;7.80;99.90;;;;;;5083692;28;20243;-47
2022/04/27 03:57:00;;;;;;;11.67;4.67;;;7.80;99.90;;;;;;5084377;28;20212;-50
2022/04/27 03:59:44;;;;;;;13.40;6.10;;;7.90;99.90;;;;;;5084859;28;20200;-49
2022/04/27 04:02:29;;;;;;;3.90;2.50;;;8.00;99.90;;;;;;5084128;28;20307;-47
2022/04/27 04:05:13;;;;;;;1.73;1.63;;;8.00;99.90;;;;;;5085501;28;20232;-55
2022/04/27 04:07:58;;;;;;;3.20;1.63;;;7.90;99.90;;;;;;5083463;28;20201;-51
2022/04/27 04:10:44;;;;;;;3.63;2.50;;;8.00;99.90;;;;;;5084564;28;20200;-50
2022/04/27 04:13:28;;;;;;;4.47;2.03;;;8.00;99.90;;;;;;5085543;28;20201;-53
2022/04/27 04:16:13;;;;;;;2.73;2.17;;;8.10;99.90;;;;;;5083081;28;20278;-49
2022/04/27 04:18:57;;;;;;;4.20;1.93;;;8.10;99.90;;;;;;5084758;28;20227;-56
2022/04/27 04:21:41;;;;;;;1.50;1.40;;;8.10;99.90;;;;;;5084852;28;20192;-53
2022/04/27 04:24:26;;;;;;;3.97;2.27;;;8.10;99.90;;;;;;5083916;28;20498;-60
2022/04/27 04:30:14;;;;;;;3.23;1.73;;;8.10;99.90;;;;;;5085821;28;20275;-54
2022/04/27 04:32:58;;;;;;;13.50;5.77;;;8.20;99.90;;;;;;5083437;28;20211;-47
2022/04/27 04:35:42;;;;;;;1.73;1.57;;;8.20;99.90;;;;;;5084908;28;20263;-49
2022/04/27 04:38:27;;;;;;;1.87;1.60;;;8.10;99.90;;;;;;5082760;28;20188;-51
2022/04/27 04:41:12;;;;;;;5.33;2.00;;;8.10;99.90;;;;;;5080773;28;20311;-57
2022/04/27 04:43:57;;;;;;;3.93;2.47;;;8.10;99.90;;;;;;5083333;28;20248;-55
2022/04/27 04:46:41;;;;;;;1.83;1.60;;;8.00;99.90;;;;;;5084787;28;20243;-52
2022/04/27 04:49:28;;;;;;;2.30;1.60;;;7.90;99.90;;;;;;5083553;28;20281;-48
2022/04/27 04:52:12;;;;;;;2.03;1.37;;;8.00;99.90;;;;;;5081967;28;20185;-62
2022/04/27 04:54:57;;;;;;;2.10;1.97;;;8.10;99.90;;;;;;5080730;28;20216;-52
2022/04/27 04:57:41;;;;;;;1.90;1.33;;;8.10;99.90;;;;;;5082796;28;20197;-55
2022/04/27 05:00:26;;;;;;;2.53;1.60;;;8.10;99.90;;;;;;5082935;28;20223;-45
2022/04/27 05:03:11;;;;;;;1.80;1.67;;;8.10;99.90;;;;;;5079771;28;20250;-54
2022/04/27 05:05:55;;;;;;;1.60;1.50;;;8.20;99.90;;;;;;5082191;28;20294;-53
2022/04/27 05:08:40;;;;;;;2.27;1.20;;;8.30;99.90;;;;;;5080532;28;20184;-44
2022/04/27 05:11:27;;;;;;;1.50;1.03;;;8.20;99.90;;;;;;5081337;28;20262;-57
2022/04/27 05:14:12;;;;;;;1.43;1.10;;;8.20;99.90;;;;;;5081723;28;20219;-59
2022/04/27 05:16:57;;;;;;;1.90;1.63;;;8.20;99.90;;;;;;5080665;28;20236;-46
2022/04/27 05:19:41;;;;;;;1.97;1.50;;;8.30;99.90;;;;;;5082058;28;20188;-48
2022/04/27 05:22:26;;;;;;;1.40;1.30;;;8.20;99.90;;;;;;5081821;28;20327;-51
2022/04/27 05:25:11;;;;;;;1.50;1.40;;;8.20;99.90;;;;;;5075058;28;20243;-58
2022/04/27 05:27:55;;;;;;;2.07;1.50;;;8.30;99.90;;;;;;5080649;28;20181;-52
2022/04/27 05:33:42;;;;;;;2.17;1.60;;;8.30;99.90;;;;;;5073192;28;20203;-54
2022/04/27 05:36:26;;;;;;;2.10;1.30;;;8.50;99.90;;;;;;5076696;28;20231;-45
2022/04/27 05:39:10;;;;;;;1.57;1.30;;;8.50;99.90;;;;;;5080993;28;20189;-54
2022/04/27 05:41:55;;;;;;;1.67;1.43;;;8.50;99.90;;;;;;5078411;28;20189;-53
2022/04/27 05:44:39;;;;;;;2.10;1.67;;;8.50;99.90;;;;;;5076751;28;20246;-51
2022/04/27 05:47:25;;;;;;;1.77;1.27;;;8.60;99.90;;;;;;5078777;28;20245;-49
2022/04/27 05:50:10;;;;;;;1.33;1.17;;;8.60;99.90;;;;;;5082098;28;20189;-48
2022/04/27 05:53:00;;;;;;;1.30;1.10;;;8.60;99.90;;;;;;5082530;28;20196;-52
2022/04/27 05:55:45;;;;;;;2.10;1.33;;;8.60;99.90;;;;;;5077109;28;20249;-51
2022/04/27 05:58:30;;;;;;;1.47;1.37;;;8.60;99.90;;;;;;5081009;28;20192;-48
2022/04/27 06:01:15;;;;;;;2.63;1.70;;;8.50;99.90;;;;;;5081788;28;20251;-49
2022/04/27 06:03:59;;;;;;;1.90;1.63;;;8.50;99.90;;;;;;5079847;28;20213;-51
2022/04/27 06:06:44;;;;;;;2.83;1.40;;;8.50;99.90;;;;;;5076837;28;20209;-52
2022/04/27 06:09:29;;;;;;;1.40;1.23;;;8.50;99.90;;;;;;5080287;28;20193;-56
2022/04/27 06:12:13;;;;;;;1.80;1.67;;;8.80;99.90;;;;;;5077145;28;20188;-57
2022/04/27 06:14:58;;;;;;;2.03;1.83;;;9.00;99.90;;;;;;5075579;28;20275;-56
2022/04/27 06:17:43;;;;;;;2.63;1.50;;;9.00;99.90;;;;;;5077882;28;20196;-52
2022/04/27 06:20:27;;;;;;;3.03;1.57;;;9.20;99.90;;;;;;5078448;28;20192;-51
2022/04/27 06:23:13;;;;;;;2.43;1.77;;;9.20;99.90;;;;;;5080427;28;20303;-51
2022/04/27 06:25:57;;;;;;;2.13;1.23;;;9.30;99.90;;;;;;5075494;28;20188;-53
2022/04/27 06:28:42;;;;;;;2.23;1.63;;;9.10;99.90;;;;;;5080856;28;20707;-55
2022/04/27 06:31:26;;;;;;;2.53;1.80;;;9.20;99.90;;;;;;5082242;28;20246;-52
2022/04/27 06:34:10;;;;;;;1.73;1.63;;;9.40;99.90;;;;;;5080870;28;20277;-47
2022/04/27 06:36:55;;;;;;;1.43;1.37;;;9.10;99.90;;;;;;5078756;28;20200;-47
2022/04/27 06:39:40;;;;;;;2.30;1.40;;;9.10;99.90;;;;;;5080999;28;20211;-52
2022/04/27 06:42:25;;;;;;;2.23;1.73;;;9.20;99.90;;;;;;5080024;28;20263;-46
2022/04/27 06:45:10;;;;;;;2.83;2.33;;;9.20;99.90;;;;;;5078208;28;20281;-52
2022/04/27 06:47:55;;;;;;;2.10;1.87;;;9.30;99.90;;;;;;5081064;28;20225;-51
2022/04/27 06:50:40;;;;;;;1.87;1.40;;;9.40;99.90;;;;;;5057267;28;20367;-45
2022/04/27 06:53:24;;;;;;;2.80;2.03;;;9.50;99.90;;;;;;5066679;28;20212;-54
2022/04/27 06:56:08;;;;;;;2.77;1.57;;;9.60;99.90;;;;;;5078682;28;20267;-49
2022/04/27 06:58:52;;;;;;;2.33;1.70;;;9.60;99.90;;;;;;5080860;28;20184;-43
2022/04/27 07:01:37;;;;;;;1.60;1.40;;;9.60;99.90;;;;;;5083135;28;20293;-50
2022/04/27 07:04:22;;;;;;;2.30;2.20;;;9.80;99.90;;;;;;5081254;28;20247;-44
2022/04/27 07:07:07;;;;;;;2.00;1.90;;;9.90;99.90;;;;;;5083358;28;20249;-54
2022/04/27 07:09:53;;;;;;;2.30;1.70;;;10.00;99.90;;;;;;5082860;28;20216;-56
2022/04/27 07:12:38;;;;;;;3.50;1.70;;;10.20;99.90;;;;;;5081747;28;20224;-61
2022/04/27 07:15:22;;;;;;;1.60;1.50;;;9.90;99.90;;;;;;5063752;28;20240;-49
2022/04/27 07:18:07;;;;;;;1.90;1.60;;;10.10;99.90;;;;;;5061548;28;20282;-53
2022/04/27 07:20:52;;;;;;;1.57;1.47;;;10.50;99.90;;;;;;5062702;28;20324;-60
2022/04/27 07:23:36;;;;;;;2.07;1.97;;;10.70;99.90;;;;;;5078716;28;20193;-48
2022/04/27 07:26:21;;;;;;;1.60;1.50;;;11.30;99.90;;;;;;5082026;28;20205;-55
2022/04/27 07:29:08;;;;;;;1.80;1.70;;;11.00;99.90;;;;;;5083041;28;20219;-58
2022/04/27 07:31:52;;;;;;;1.70;1.60;;;11.00;99.90;;;;;;5085921;28;20216;-62
2022/04/27 07:34:37;;;;;;;1.70;1.60;;;10.80;99.90;;;;;;5084531;28;20270;-55
2022/04/27 07:37:21;;;;;;;1.57;1.47;;;10.80;99.90;;;;;;5086531;28;20193;-52
2022/04/27 07:40:09;;;;;;;1.87;1.77;;;10.80;99.90;;;;;;5086494;28;20193;-47
2022/04/27 07:42:53;;;;;;;1.60;1.50;;;11.00;99.90;;;;;;5084698;28;20197;-45
2022/04/27 07:45:39;;;;;;;1.37;1.27;;;11.20;99.90;;;;;;5087547;28;20216;-52
2022/04/27 07:48:23;;;;;;;1.70;1.60;;;11.40;99.90;;;;;;5085611;28;20215;-61
2022/04/27 07:51:07;;;;;;;1.33;1.33;;;11.50;99.90;;;;;;5085959;28;20662;-51
2022/04/27 07:53:52;;;;;;;1.20;1.10;;;11.50;99.90;;;;;;5087415;28;20265;-58
2022/04/27 07:56:36;;;;;;;1.20;1.20;;;11.00;99.90;;;;;;5084978;28;20205;-59
2022/04/27 07:59:21;;;;;;;1.00;1.00;;;11.10;99.90;;;;;;5086085;28;20224;-42
2022/04/27 08:02:06;;;;;;;1.43;1.23;;;11.10;99.90;;;;;;5085471;28;20290;-60
2022/04/27 08:04:51;;;;;;;8.50;4.70;;;11.30;99.90;;;;;;5083738;28;20268;-52
2022/04/27 08:07:44;;;;;;;3.13;2.30;;;11.60;99.90;;;;;;5086705;28;20197;-45
2022/04/27 08:10:29;;;;;;;2.27;1.20;;;11.90;99.90;;;;;;5085877;28;20193;-61
2022/04/27 08:13:15;;;;;;;1.50;1.40;;;12.00;99.90;;;;;;5084189;28;20192;-51
2022/04/27 08:15:59;;;;;;;1.10;1.10;;;12.00;99.90;;;;;;5085846;28;20270;-57
2022/04/27 08:18:45;;;;;;;1.33;1.23;;;12.20;99.90;;;;;;5083988;28;20243;-53
2022/04/27 08:21:30;;;;;;;1.53;1.43;;;12.40;99.90;;;;;;5083970;28;20204;-57
2022/04/27 08:24:18;;;;;;;2.10;1.93;;;12.70;99.90;;;;;;5086051;28;20352;-45
2022/04/27 08:27:03;;;;;;;2.07;1.97;;;12.80;99.90;;;;;;5071154;28;20231;-48
2022/04/27 08:29:47;;;;;;;4.70;3.17;;;12.70;99.90;;;;;;5083395;28;20211;-44
2022/04/27 08:32:31;;;;;;;2.50;2.30;;;12.70;99.90;;;;;;5082459;28;20184;-53
2022/04/27 08:35:16;;;;;;;2.20;2.00;;;12.80;99.90;;;;;;5083311;28;20683;-58
2022/04/27 08:38:05;;;;;;;1.90;1.80;;;12.40;99.90;;;;;;5083520;28;20320;-43
2022/04/27 08:40:49;;;;;;;2.20;2.07;;;12.60;99.90;;;;;;5084745;28;20211;-45
2022/04/27 08:43:34;;;;;;;2.83;2.20;;;12.80;99.90;;;;;;5077012;28;20205;-58
2022/04/27 08:46:19;;;;;;;2.23;2.10;;;13.20;99.90;;;;;;5084999;28;20205;-47
2022/04/27 08:49:08;;;;;;;1.77;1.77;;;13.00;99.90;;;;;;5083007;28;20264;-52
2022/04/27 08:51:54;;;;;;;1.93;1.83;;;13.30;99.90;;;;;;5082714;28;20251;-51
2022/04/27 08:54:39;;;;;;;2.30;1.90;;;13.50;99.90;;;;;;5084570;28;20225;-49
2022/04/27 08:57:23;;;;;;;2.20;2.00;;;14.00;99.90;;;;;;5083754;28;20196;-48
2022/04/27 09:00:10;;;;;;;2.00;1.90;;;14.70;99.90;;;;;;5069844;28;20261;-53
2022/04/27 09:02:56;;;;;;;1.90;1.80;;;15.00;99.90;;;;;;5084843;28;20231;-48
2022/04/27 09:05:49;;;;;;;2.10;2.00;;;15.20;99.90;;;;;;5082676;28;20283;-48
2022/04/27 09:08:58;;;;;;;2.60;2.40;;;15.60;99.90;;;;;;5084051;28;20192;-62
2022/04/27 09:11:51;;;;;;;2.27;2.03;;;15.10;99.90;;;;;;5083441;28;20269;-48
2022/04/27 09:14:38;;;;;;;1.90;1.80;;;14.90;99.90;;;;;;5062759;28;20271;-51
2022/04/27 09:23:38;;;;;;;2.60;2.40;;;14.30;99.90;;;;;;5084016;28;20207;-57
2022/04/27 09:26:22;;;;;;;5.83;3.53;;;13.40;99.90;;;;;;5062943;28;20197;-45
2022/04/27 09:29:08;;;;;;;3.60;3.30;;;13.00;99.90;;;;;;5082475;28;20254;-44
2022/04/27 09:31:57;;;;;;;3.73;3.43;;;12.90;99.90;;;;;;5081619;28;20331;-55
2022/04/27 09:34:46;;;;;;;6.47;3.50;;;12.50;99.90;;;;;;5082790;28;20260;-49
2022/04/27 09:37:44;;;;;;;4.10;3.30;;;12.00;99.90;;;;;;5084811;28;20730;-60
2022/04/27 09:40:46;;;;;;;3.93;3.20;;;12.20;99.90;;;;;;5081189;28;20220;-61
2022/04/27 09:43:47;;;;;;;4.17;3.40;;;12.40;99.90;;;;;;5081875;28;20283;-60
2022/04/27 09:46:37;;;;;;;5.37;3.20;;;12.70;99.90;;;;;;5084287;28;20188;-52
2022/04/27 09:49:21;;;;;;;3.83;3.40;;;13.30;99.90;;;;;;5083041;28;20192;-60
2022/04/27 09:52:07;;;;;;;4.23;3.40;;;13.70;99.90;;;;;;5080873;28;20286;-56
2022/04/27 09:54:53;;;;;;;15.10;8.30;;;13.60;99.90;;;;;;5082707;28;20231;-60
2022/04/27 09:57:38;;;;;;;4.80;3.77;;;14.20;99.90;;;;;;5081897;28;20366;-51
2022/04/27 10:00:24;;;;;;;3.10;2.90;;;14.80;99.90;;;;;;5083543;28;20204;-44
2022/04/27 10:03:19;;;;;;;4.17;3.37;;;15.60;99.90;;;;;;5083579;28;20257;-54
2022/04/27 10:06:04;;;;;;;2.40;2.30;;;15.70;99.90;;;;;;5081401;28;20264;-54
2022/04/27 10:08:51;;;;;;;6.40;5.57;;;16.70;99.90;;;;;;5083464;28;20200;-46
2022/04/27 10:11:37;;;;;;;6.77;4.97;;;16.70;99.90;;;;;;5083445;28;20200;-45
2022/04/27 10:14:22;;;;;;;3.63;3.00;;;16.20;99.90;;;;;;5062405;28;20252;-45
2022/04/27 10:17:07;;;;;;;2.83;2.63;;;16.20;99.90;;;;;;5063688;28;20225;-57
2022/04/27 10:19:51;;;;;;;2.73;2.53;;;16.70;99.90;;;;;;5063177;28;20274;-61
2022/04/27 10:22:35;;;;;;;2.57;2.47;;;16.30;99.90;;;;;;5068333;28;20212;-46
2022/04/27 10:25:20;;;;;;;4.50;3.13;;;15.90;99.90;;;;;;5084272;28;20192;-49
2022/04/27 10:28:34;;;;;;;3.47;3.17;;;15.80;99.90;;;;;;5081720;28;20246;-43
2022/04/27 10:31:46;;;;;;;6.17;4.50;;;15.80;99.90;;;;;;5081944;28;20216;-45
2022/04/27 10:34:32;;;;;;;3.10;2.87;;;15.40;99.90;;;;;;5077287;28;20196;-49
2022/04/27 10:37:46;;;;;;;3.00;2.70;;;15.00;99.90;;;;;;5097129;28;20227;-57
2022/04/27 10:40:39;;;;;;;2.27;2.07;;;14.70;99.90;;;;;;5076360;28;20264;-51
2022/04/27 10:43:42;;;;;;;1.80;1.70;;;14.70;99.90;;;;;;5073162;28;20198;-58
2022/04/27 10:46:43;;;;;;;1.93;1.83;;;14.60;99.90;;;;;;5073555;28;20207;-46
2022/04/27 10:49:28;;;;;;;2.47;2.20;;;14.80;99.90;;;;;;5066989;28;20709;-42
2022/04/27 10:52:13;;;;;;;2.47;1.97;;;15.40;99.90;;;;;;5072265;28;20208;-41
2022/04/27 10:54:58;;;;;;;3.27;2.20;;;15.60;99.90;;;;;;5073378;28;20220;-50
2022/04/27 10:57:42;;;;;;;2.60;2.33;;;15.00;99.90;;;;;;5070543;28;20223;-42
2022/04/27 11:00:27;;;;;;;3.57;2.20;;;14.90;99.90;;;;;;5066721;28;20191;-41
2022/04/27 11:03:19;;;;;;;3.03;2.20;;;14.50;99.90;;;;;;5095023;28;20226;-44
2022/04/27 11:06:09;;;;;;;2.20;2.10;;;14.10;99.90;;;;;;5066942;28;20234;-45
2022/04/27 11:09:02;;;;;;;2.00;1.90;;;14.20;99.90;;;;;;5076203;28;20238;-43
2022/04/27 11:11:51;;;;;;;2.37;1.90;;;14.40;99.90;;;;;;5085268;28;20255;-43
2022/04/27 11:14:37;;;;;;;1.70;1.63;;;14.60;99.90;;;;;;5078533;28;20213;-51
2022/04/27 11:17:29;;;;;;;2.00;1.90;;;14.90;99.90;;;;;;5085929;28;20220;-42
2022/04/27 11:20:25;;;;;;;1.67;1.57;;;16.90;99.90;;;;;;5084922;28;20198;-43
2022/04/27 11:23:21;;;;;;;1.60;1.50;;;19.00;98.50;;;;;;5082985;28;20254;-41
2022/04/27 11:26:06;;;;;;;1.73;1.63;;;19.60;98.10;;;;;;5085731;28;20192;-53
2022/04/27 11:28:53;;;;;;;2.08;1.98;;;21.80;94.50;;;;;;5084014;28;20250;-46
2022/04/27 11:31:39;;;;;;;3.17;2.88;;;23.40;91.60;;;;;;5083994;28;20294;-45
2022/04/27 11:34:27;;;;;;;2.20;2.10;;;23.80;87.00;;;;;;5086207;28;20238;-45
2022/04/27 11:37:16;;;;;;;2.08;1.98;;;23.50;86.50;;;;;;5083839;28;20262;-44
2022/04/27 11:40:16;;;;;;;1.65;1.55;;;23.10;82.30;;;;;;5083710;28;20197;-51
2022/04/27 11:43:00;;;;;;;1.65;1.65;;;22.80;82.80;;;;;;5086412;28;20196;-45
2022/04/27 11:45:49;;;;;;;1.20;1.20;;;21.00;86.70;;;;;;5084552;28;20221;-48
2022/04/27 11:48:34;;;;;;;1.63;1.52;;;20.20;90.00;;;;;;5085475;28;20239;-47
2022/04/27 11:51:18;;;;;;;3.55;1.35;;;18.20;92.10;;;;;;5087322;28;20209;-47
2022/04/27 11:54:03;;;;;;;0.95;0.95;;;17.90;91.30;;;;;;5082929;28;20242;-52
2022/04/27 11:56:58;;;;;;;2.33;1.90;;;18.00;91.50;;;;;;5085020;28;20203;-46
2022/04/27 11:59:47;;;;;;;1.47;1.30;;;18.00;91.10;;;;;;5085872;28;20202;-50
2022/04/27 12:02:34;;;;;;;1.10;1.10;;;17.50;92.70;;;;;;5081942;28;20265;-50
2022/04/27 12:05:28;;;;;;;2.63;1.00;;;17.60;92.20;;;;;;5085103;28;20316;-60
2022/04/27 12:08:19;;;;;;;1.00;1.00;;;18.10;90.90;;;;;;5085727;28;20197;-46
2022/04/27 12:11:03;;;;;;;1.30;1.30;;;17.90;90.70;;;;;;5083983;28;20209;-51
2022/04/27 12:13:48;;;;;;;1.40;1.30;;;17.20;90.40;;;;;;5084889;28;20203;-46
2022/04/27 12:16:32;;;;;;;0.93;0.93;;;17.70;91.00;;;;;;5084790;28;20229;-52
2022/04/27 12:19:27;;;;;;;1.00;1.00;;;17.20;91.10;;;;;;5083240;28;20263;-50
2022/04/27 12:22:15;;;;;;;1.37;1.27;;;17.50;91.70;;;;;;5085314;28;20259;-50
2022/04/27 12:25:01;;;;;;;1.30;1.03;;;17.50;90.90;;;;;;5084720;28;20343;-61
2022/04/27 12:27:47;;;;;;;1.03;1.03;;;17.80;90.80;;;;;;5083731;28;20302;-48
2022/04/27 12:30:39;;;;;;;0.87;0.87;;;18.50;89.20;;;;;;5085622;28;20188;-56
2022/04/27 12:33:37;;;;;;;1.23;1.00;;;18.60;87.50;;;;;;5083525;28;20221;-54
2022/04/27 12:39:41;;;;;;;1.15;1.15;;;18.90;86.90;;;;;;5084768;28;20247;-53
2022/04/27 12:42:26;;;;;;;1.27;1.17;;;18.50;84.60;;;;;;5082629;28;20232;-62
2022/04/27 12:45:10;;;;;;;6.45;3.00;;;18.70;86.50;;;;;;5082607;28;20225;-61
2022/04/27 12:47:55;;;;;;;1.33;1.23;;;18.90;88.90;;;;;;5084967;28;20208;-45
2022/04/27 12:50:49;;;;;;;1.95;1.30;;;18.80;91.50;;;;;;5083258;28;20193;-60
2022/04/27 12:53:35;;;;;;;2.42;1.13;;;19.00;91.50;;;;;;5082805;28;20235;-61
2022/04/27 12:56:20;;;;;;;1.23;1.13;;;18.60;92.40;;;;;;5084388;28;20224;-62
2022/04/27 12:59:11;;;;;;;2.30;2.03;;;18.20;92.60;;;;;;5082604;28;20194;-56
2022/04/27 13:02:00;;;;;;;1.37;1.30;;;17.80;93.10;;;;;;5079275;28;20250;-59
2022/04/27 13:04:46;;;;;;;1.30;1.20;;;17.10;93.80;;;;;;5081316;28;20251;-49
2022/04/27 13:07:31;;;;;;;1.07;1.03;;;16.90;94.80;;;;;;5080636;28;20239;-50
2022/04/27 13:13:19;;;;;;;1.30;1.10;;;16.90;95.20;;;;;;5082608;28;20259;-46
2022/04/27 13:16:04;;;;;;;1.00;1.00;;;17.10;95.00;;;;;;5079825;28;20200;-55
2022/04/27 13:18:49;;;;;;;1.10;1.10;;;17.30;94.90;;;;;;5079578;28;20224;-53
2022/04/27 13:21:33;;;;;;;1.90;1.10;;;17.80;94.90;;;;;;5081992;28;20278;-52
2022/04/27 13:24:17;;;;;;;1.60;1.43;;;17.70;94.40;;;;;;5078651;28;20200;-48
2022/04/27 13:27:01;;;;;;;1.30;1.20;;;17.50;94.90;;;;;;5083227;28;20197;-55
2022/04/27 13:29:46;;;;;;;1.27;1.27;;;18.40;94.10;;;;;;5079521;28;20192;-53
2022/04/27 13:32:31;;;;;;;1.15;1.13;;;19.30;93.10;;;;;;5080717;28;20200;-44
2022/04/27 13:35:16;;;;;;;1.17;1.17;;;20.90;91.80;;;;;;5082647;28;20220;-49
2022/04/27 13:38:05;;;;;;;1.10;1.10;;;24.50;86.30;;;;;;5077251;28;20216;-49
2022/04/27 13:40:51;;;;;;;1.15;1.15;;;24.40;82.70;;;;;;5078526;28;20243;-50
2022/04/27 13:43:37;;;;;;;1.10;1.10;;;25.00;80.70;;;;;;5082260;28;20261;-47
2022/04/27 13:46:21;;;;;;;1.30;1.30;;;26.10;79.80;;;;;;5079426;28;20225;-48
2022/04/27 13:49:06;;;;;;;1.08;0.98;;;24.60;78.50;;;;;;5076342;28;20196;-56
2022/04/27 13:51:51;;;;;;;1.58;1.48;;;25.00;75.40;;;;;;5082107;28;20268;-47
2022/04/27 13:54:36;;;;;;;1.00;1.00;;;23.70;77.90;;;;;;5080994;28;20200;-43
2022/04/27 13:57:20;;;;;;;1.08;1.08;;;25.30;76.40;;;;;;5082134;28;20188;-43
2022/04/27 14:00:07;;;;;;;1.48;1.38;;;24.40;77.40;;;;;;5075929;28;20200;-49
2022/04/27 14:02:52;;;;;;;1.45;1.40;;;23.90;76.90;;;;;;5079566;28;20296;-50
2022/04/27 14:05:36;;;;;;;1.00;1.00;;;22.60;78.20;;;;;;5081599;28;20259;-45
2022/04/27 14:08:21;;;;;;;1.35;1.35;;;21.40;82.40;;;;;;5076896;28;20201;-53
2022/04/27 14:11:06;;;;;;;2.45;1.60;;;21.20;83.20;;;;;;5081101;28;20201;-49
2022/04/27 14:13:50;;;;;;;1.52;1.42;;;20.40;85.00;;;;;;5079721;28;20239;-47
2022/04/27 14:19:38;;;;;;;1.63;1.52;;;19.90;86.30;;;;;;5076598;28;20251;-52
2022/04/27 14:22:24;;;;;;;1.27;1.27;;;19.50;86.10;;;;;;5080448;28;20370;-46
2022/04/27 14:25:08;;;;;;;1.17;1.17;;;18.80;87.40;;;;;;5077478;28;20252;-47
2022/04/27 14:27:53;;;;;;;1.37;1.37;;;18.80;87.70;;;;;;5076328;28;20209;-45
2022/04/27 14:30:37;;;;;;;2.83;1.60;;;18.30;90.00;;;;;;5080562;28;20238;-48
2022/04/27 14:33:22;;;;;;;1.97;1.40;;;17.40;90.40;;;;;;5078942;28;20280;-49
2022/04/27 14:36:06;;;;;;;1.63;1.40;;;17.00;91.20;;;;;;5079098;28;20184;-52
2022/04/27 14:38:52;;;;;;;1.30;1.30;;;17.10;92.00;;;;;;5074417;28;20253;-46
2022/04/27 14:41:36;;;;;;;1.30;1.30;;;17.10;92.50;;;;;;5080598;28;20207;-47
2022/04/27 14:44:21;;;;;;;1.23;1.13;;;17.30;92.10;;;;;;5081083;28;20189;-47
2022/04/27 14:47:06;;;;;;;1.37;1.27;;;17.30;92.00;;;;;;5081794;28;20274;-54
2022/04/27 14:49:50;;;;;;;1.40;1.30;;;17.20;91.80;;;;;;5079888;28;20273;-52
2022/04/27 14:52:37;;;;;;;1.37;1.27;;;16.80;91.20;;;;;;5085007;28;20289;-56
2022/04/27 14:55:23;;;;;;;1.20;1.20;;;17.00;91.40;;;;;;5082199;28;20231;-47